createdAt,value
2019-03-23T00:00:18.708Z,90.73
2019-03-23T00:05:21.420Z,93.03
2019-03-23T00:10:23.858Z,93.40
2019-03-23T00:15:26.590Z,92.30
2019-03-23T00:20:29.269Z,91.93
2019-03-23T00:25:31.741Z,91.17
2019-03-23T00:30:35.088Z,95.03
2019-03-23T00:35:37.873Z,97.87
2019-03-23T00:40:40.322Z,92.63
2019-03-23T00:45:42.974Z,91.40
2019-03-23T00:50:45.397Z,98.83
2019-03-23T00:55:47.679Z,96.53
2019-03-23T01:00:50.172Z,97.40
2019-03-23T01:05:52.558Z,99.83
2019-03-23T01:10:55.639Z,102.10
2019-03-23T01:15:58.107Z,105.30
2019-03-23T01:21:01.158Z,97.83
2019-03-23T01:26:03.963Z,99.80
2019-03-23T01:31:07.242Z,99.03
2019-03-23T01:36:09.757Z,102.93
2019-03-23T01:41:12.556Z,99.03
2019-03-23T01:46:15.205Z,98.33
2019-03-23T01:51:17.985Z,97.23
2019-03-23T01:56:20.411Z,100.17
2019-03-23T02:01:23.808Z,102.97
2019-03-23T02:06:26.916Z,96.97
2019-03-23T02:11:30.040Z,105.53
2019-03-23T02:16:33.052Z,101.93
2019-03-23T02:21:35.685Z,100.77
2019-03-23T02:26:38.081Z,87.17
2019-03-23T02:31:41.404Z,89.50
2019-03-23T02:36:44.348Z,89.17
2019-03-23T02:41:47.379Z,92.37
2019-03-23T02:46:50.758Z,92.30
2019-03-23T02:51:53.738Z,87.90
2019-03-23T02:56:56.675Z,83.13
2019-03-23T03:01:59.694Z,94.40
2019-03-23T03:07:02.709Z,89.17
2019-03-23T03:12:06.076Z,90.33
2019-03-23T03:17:08.841Z,94.40
2019-03-23T03:22:11.226Z,91.73
2019-03-23T03:27:14.370Z,92.23
2019-03-23T03:32:17.200Z,90.67
2019-03-23T03:37:19.652Z,95.50
2019-03-23T03:42:24.474Z,96.13
2019-03-23T03:47:27.637Z,98.37
2019-03-23T03:52:30.428Z,96.93
2019-03-23T03:57:33.450Z,95.47
2019-03-23T04:02:36.546Z,98.70
2019-03-23T04:07:38.934Z,98.73
2019-03-23T04:12:43.181Z,96.33
2019-03-23T04:17:45.956Z,175.67
2019-03-23T04:22:48.858Z,165.40
2019-03-23T04:27:51.866Z,145.60
2019-03-23T04:32:54.225Z,146.90
2019-03-23T04:37:56.660Z,164.40
2019-03-23T04:42:59.160Z,252.27
2019-03-23T04:48:02.029Z,423.37
2019-03-23T04:53:05.175Z,180.03
2019-03-23T04:58:08.128Z,402.97
2019-03-23T05:03:11.192Z,283.63
2019-03-23T05:08:13.540Z,163.43
2019-03-23T05:13:15.884Z,139.13
2019-03-23T05:18:19.228Z,112.93
2019-03-23T05:23:22.279Z,103.20
2019-03-23T05:28:25.240Z,100.10
2019-03-23T05:33:27.956Z,100.73
2019-03-23T05:38:30.965Z,94.33
2019-03-23T05:43:33.472Z,92.97
2019-03-23T05:48:36.225Z,90.77
2019-03-23T05:53:39.658Z,89.97
2019-03-23T05:58:42.364Z,92.77
2019-03-23T06:03:44.989Z,82.57
2019-03-23T06:08:54.988Z,84.60
2019-03-23T06:13:53.373Z,81.93
2019-03-23T06:18:56.060Z,75.33
2019-03-23T06:23:58.740Z,71.03
2019-03-23T06:29:01.792Z,63.37
2019-03-23T06:34:04.884Z,54.90
2019-03-23T06:39:07.708Z,55.13
2019-03-23T06:44:10.729Z,59.53
2019-03-23T06:49:13.692Z,55.13
2019-03-23T06:54:16.149Z,48.50
2019-03-23T06:59:18.680Z,51.57
2019-03-23T07:04:22.233Z,52.97
2019-03-23T07:09:24.700Z,45.40
2019-03-23T07:14:27.056Z,48.90
2019-03-23T07:19:30.051Z,44.63
2019-03-23T07:24:32.918Z,47.30
2019-03-23T07:29:36.401Z,47.83
2019-03-23T07:34:40.537Z,46.77
2019-03-23T07:39:42.927Z,44.47
2019-03-23T07:44:45.729Z,45.37
2019-03-23T07:49:48.406Z,47.27
2019-03-23T07:54:51.140Z,48.27
2019-03-23T07:59:54.521Z,46.37
2019-03-23T08:04:57.451Z,50.47
2019-03-23T08:10:00.461Z,46.47
2019-03-23T08:15:03.545Z,47.00
2019-03-23T08:20:06.469Z,46.67
2019-03-23T08:25:09.082Z,47.10
2019-03-23T08:30:12.125Z,49.00
2019-03-23T08:35:14.840Z,47.73
2019-03-23T08:40:17.557Z,50.97
2019-03-23T08:45:20.669Z,50.47
2019-03-23T08:50:25.050Z,51.20
2019-03-23T08:55:28.090Z,47.73
2019-03-23T09:00:30.768Z,46.73
2019-03-23T09:05:33.533Z,49.20
2019-03-23T09:10:36.011Z,45.27
2019-03-23T09:15:38.423Z,44.97
2019-03-23T09:20:40.877Z,44.57
2019-03-23T09:25:45.683Z,49.47
2019-03-23T09:30:48.684Z,44.30
2019-03-23T09:35:53.444Z,44.63
2019-03-23T09:40:56.165Z,42.03
2019-03-23T09:45:58.673Z,42.03
2019-03-23T09:51:01.120Z,45.47
2019-03-23T09:56:03.654Z,46.33
2019-03-23T10:01:07.209Z,47.57
2019-03-23T10:06:09.662Z,43.90
2019-03-23T10:11:12.248Z,41.83
2019-03-23T10:16:14.665Z,42.50
2019-03-23T10:21:17.167Z,45.13
2019-03-23T10:26:19.499Z,45.60
2019-03-23T10:31:22.439Z,44.47
2019-03-23T10:36:24.780Z,42.27
2019-03-23T10:41:27.219Z,44.37
2019-03-23T10:46:29.959Z,42.17
2019-03-23T10:51:32.295Z,44.83
2019-03-23T10:56:34.971Z,41.97
2019-03-23T11:01:38.901Z,44.97
2019-03-23T11:06:41.363Z,42.73
2019-03-23T11:11:43.849Z,45.27
2019-03-23T11:16:46.993Z,52.77
2019-03-23T11:21:50.296Z,48.70
2019-03-23T11:26:53.096Z,56.30
2019-03-23T11:31:56.612Z,55.80
2019-03-23T11:36:59.064Z,53.73
2019-03-23T11:42:01.805Z,50.13
2019-03-23T11:47:04.487Z,47.03
2019-03-23T11:52:06.975Z,48.37
2019-03-23T11:57:09.352Z,48.90
2019-03-23T12:02:12.808Z,45.83
2019-03-23T12:07:15.149Z,47.83
2019-03-23T12:12:17.496Z,55.87
2019-03-23T12:17:20.403Z,52.83
2019-03-23T12:22:23.576Z,53.53
2019-03-23T12:27:26.013Z,54.47
2019-03-23T12:32:29.036Z,58.03
2019-03-23T12:37:32.051Z,62.20
2019-03-23T12:42:34.740Z,60.03
2019-03-23T12:47:37.571Z,64.43
2019-03-23T12:52:40.054Z,62.67
2019-03-23T12:57:43.517Z,61.90
2019-03-23T13:02:46.968Z,56.60
2019-03-23T13:07:50.194Z,52.67
2019-03-23T13:12:52.980Z,53.97
2019-03-23T13:17:55.884Z,49.53
2019-03-23T13:22:58.584Z,47.37
2019-03-23T13:28:01.200Z,41.43
2019-03-23T13:33:03.819Z,43.00
2019-03-23T13:38:06.453Z,43.93
2019-03-23T13:43:08.884Z,40.83
2019-03-23T13:48:11.647Z,43.83
2019-03-23T13:53:14.756Z,40.57
2019-03-23T13:58:17.776Z,37.13
2019-03-23T14:03:20.488Z,42.23
2019-03-23T14:08:23.169Z,41.77
2019-03-23T14:13:27.818Z,38.70
2019-03-23T14:18:30.795Z,41.37
2019-03-23T14:23:33.829Z,41.43
2019-03-23T14:28:36.913Z,39.30
2019-03-23T14:33:40.310Z,42.20
2019-03-23T14:38:43.056Z,39.70
2019-03-23T14:43:46.427Z,41.63
2019-03-23T14:48:49.349Z,41.67
2019-03-23T14:53:51.738Z,43.70
2019-03-23T14:58:54.949Z,44.90
2019-03-23T15:03:57.540Z,47.27
2019-03-23T15:09:00.097Z,43.50
2019-03-23T15:14:02.580Z,40.47
2019-03-23T15:19:05.225Z,41.50
2019-03-23T15:24:08.556Z,36.20
2019-03-23T15:29:10.891Z,33.63
2019-03-23T15:34:14.244Z,32.07
2019-03-23T15:39:16.699Z,33.87
2019-03-23T15:44:20.220Z,31.53
2019-03-23T15:49:23.323Z,34.87
2019-03-23T15:54:26.340Z,36.27
2019-03-23T15:59:29.611Z,33.97
2019-03-23T16:04:32.289Z,36.70
2019-03-23T16:09:35.011Z,36.97
2019-03-23T16:14:38.487Z,34.33
2019-03-23T16:19:41.881Z,30.00
2019-03-23T16:24:44.783Z,27.20
2019-03-23T16:29:47.538Z,27.77
2019-03-23T16:34:50.045Z,21.17
2019-03-23T16:39:52.780Z,24.67
2019-03-23T16:44:55.246Z,21.13
2019-03-23T16:49:57.663Z,21.73
2019-03-23T16:55:00.433Z,23.80
2019-03-23T17:00:04.711Z,20.10
2019-03-23T17:05:09.415Z,22.87
2019-03-23T17:10:12.044Z,19.50
2019-03-23T17:15:14.821Z,24.70
2019-03-23T17:20:17.620Z,24.50
2019-03-23T17:25:20.487Z,28.70
2019-03-23T17:30:23.202Z,23.30
2019-03-23T17:35:25.906Z,24.57
2019-03-23T17:40:28.543Z,21.83
2019-03-23T17:45:31.002Z,25.50
2019-03-23T17:50:33.568Z,24.73
2019-03-23T17:55:36.158Z,19.90
2019-03-23T18:00:38.989Z,19.30
2019-03-23T18:05:42.387Z,22.37
2019-03-23T18:10:45.066Z,27.63
2019-03-23T18:15:49.314Z,24.00
2019-03-23T18:20:52.214Z,22.47
2019-03-23T18:25:54.576Z,21.73
2019-03-23T18:30:57.015Z,23.10
2019-03-23T18:35:59.381Z,25.37
2019-03-23T18:41:02.505Z,31.87
2019-03-23T18:46:05.017Z,26.93
2019-03-23T18:51:07.536Z,27.90
2019-03-23T18:56:09.917Z,32.70
2019-03-23T19:01:12.652Z,31.77
2019-03-23T19:06:16.324Z,38.20
2019-03-23T19:11:19.017Z,37.80
2019-03-23T19:16:21.992Z,33.87
2019-03-23T19:21:24.460Z,37.27
2019-03-23T19:26:26.978Z,38.23
2019-03-23T19:31:29.428Z,39.17
2019-03-23T19:36:31.813Z,41.07
2019-03-23T19:41:34.309Z,47.43
2019-03-23T19:46:38.586Z,50.90
2019-03-23T19:51:41.695Z,43.73
2019-03-23T19:56:44.487Z,48.93
2019-03-23T20:01:47.493Z,53.07
2019-03-23T20:06:50.369Z,54.23
2019-03-23T20:11:53.503Z,48.77
2019-03-23T20:16:55.961Z,51.60
2019-03-23T20:21:59.207Z,50.27
2019-03-23T20:27:01.647Z,47.53
2019-03-23T20:32:04.179Z,40.80
2019-03-23T20:37:08.321Z,41.23
2019-03-23T20:42:11.424Z,42.43
2019-03-23T20:47:14.253Z,36.83
2019-03-23T20:52:17.810Z,37.30
2019-03-23T20:57:24.145Z,42.63
2019-03-23T21:02:25.108Z,40.97
2019-03-23T21:07:28.611Z,38.97
2019-03-23T21:12:31.384Z,48.43
2019-03-23T21:17:33.844Z,47.03
2019-03-23T21:22:36.577Z,41.83
2019-03-23T21:27:40.009Z,47.07
2019-03-23T21:32:42.977Z,47.77
2019-03-23T21:37:45.861Z,45.50
2019-03-23T21:42:48.872Z,45.70
2019-03-23T21:47:51.941Z,47.73
2019-03-23T21:52:54.364Z,42.70
2019-03-23T21:57:56.925Z,46.93
2019-03-23T22:02:59.747Z,45.80
2019-03-23T22:08:02.131Z,41.97
2019-03-23T22:13:04.588Z,37.07
2019-03-23T22:18:06.932Z,41.87
2019-03-23T22:23:10.376Z,41.60
2019-03-23T22:28:13.441Z,43.40
2019-03-23T22:33:16.578Z,43.63
2019-03-23T22:38:19.686Z,45.03
2019-03-23T22:43:22.184Z,45.10
2019-03-23T22:48:24.711Z,47.03
2019-03-23T22:53:27.176Z,47.47
2019-03-23T22:58:30.371Z,46.07
2019-03-23T23:03:32.869Z,45.57
2019-03-23T23:08:36.761Z,51.83
2019-03-23T23:13:39.228Z,51.13
2019-03-23T23:18:42.084Z,55.50
2019-03-23T23:23:44.551Z,53.67
2019-03-23T23:28:48.416Z,56.13
2019-03-23T23:33:52.989Z,53.27
2019-03-23T23:38:56.134Z,50.17
2019-03-23T23:43:59.790Z,52.93
2019-03-23T23:49:02.843Z,47.17
2019-03-23T23:54:05.864Z,53.10
2019-03-23T23:59:09.124Z,50.93
